Newfolden, Minnesota
Current Conditions -  °F | °C
As of 9:55 PM on Tuesday 25 Nov 2014 (Local Time) from KTVF Reporting Station
Overcast Overcast  
Wind Chill:   Ceiling: 2300
Heat Index: 18°   Visibility: 2.5mi
Dew Point: 14°   Wind: 14mph
Humidity: 86%   Direction: 360°N
Pressure: 30.05"   Gusts: NA
Location:  48.36°N, 96.33°W
Report Text: KTVF 260355Z AUTO 36012KT 2 1/2SM BKN023 OVC031 M08/M10 A3005 RMK AO1
Loading
Personal Weather Stations






























Interactive Weather Map New forecast layout! Learn more

10-Day Weather Forecast

Advertisements
Track Severe Weather on mobile